createdAt,value
2023-02-11T00:01:57.935Z,79.20
2023-02-11T00:05:02.990Z,64.80
2023-02-11T00:08:07.538Z,51.08
2023-02-11T00:11:17.027Z,255.38
2023-02-11T00:14:20.873Z,101.95
2023-02-11T00:17:30.405Z,74.22
2023-02-11T00:20:34.311Z,73.30
2023-02-11T00:23:39.566Z,112.45
2023-02-11T00:26:44.121Z,113.80
2023-02-11T00:29:53.281Z,105.90
2023-02-11T00:32:58.000Z,95.68
2023-02-11T00:36:06.722Z,87.03
2023-02-11T00:39:13.238Z,87.43
2023-02-11T00:42:17.983Z,91.55
2023-02-11T00:45:22.351Z,76.18
2023-02-11T00:48:26.488Z,78.53
2023-02-11T00:51:30.429Z,194.68
2023-02-11T00:54:34.310Z,109.70
2023-02-11T00:57:43.211Z,86.50
2023-02-11T01:00:47.102Z,76.50
2023-02-11T01:03:51.730Z,114.75
2023-02-11T01:07:05.974Z,111.93
2023-02-11T01:10:09.726Z,99.50
2023-02-11T01:13:13.773Z,92.30
2023-02-11T01:16:22.952Z,99.20
2023-02-11T01:19:35.063Z,107.50
2023-02-11T01:22:46.358Z,113.40
2023-02-11T01:25:52.718Z,128.00
2023-02-11T01:29:01.702Z,113.75
2023-02-11T01:32:10.978Z,359.58
2023-02-11T01:35:25.511Z,234.38
2023-02-11T01:38:37.221Z,160.23
2023-02-11T01:41:42.147Z,131.15
2023-02-11T01:44:47.247Z,135.83
2023-02-11T01:47:52.455Z,165.48
2023-02-11T01:51:13.277Z,207.15
2023-02-11T01:54:40.836Z,262.08
2023-02-11T01:57:57.472Z,177.57
2023-02-11T02:01:03.823Z,154.88
2023-02-11T02:04:08.705Z,206.15
2023-02-11T02:07:20.553Z,181.45
2023-02-11T02:10:28.367Z,222.30
2023-02-11T02:13:35.386Z,169.57
2023-02-11T02:16:59.256Z,146.25
2023-02-11T02:20:33.003Z,145.27
2023-02-11T02:24:05.525Z,121.15
2023-02-11T02:27:18.070Z,125.15
2023-02-11T02:30:39.030Z,124.03
2023-02-11T02:33:47.628Z,109.22
2023-02-11T02:41:03.249Z,113.40
2023-02-11T02:44:09.125Z,118.63
2023-02-11T02:47:14.006Z,179.20
2023-02-11T02:50:32.251Z,237.40
2023-02-11T02:54:01.539Z,234.93
2023-02-11T02:57:31.380Z,306.90
2023-02-11T03:00:40.733Z,338.20
2023-02-11T03:07:45.803Z,489.57
2023-02-11T03:10:53.283Z,645.05
2023-02-11T03:14:02.059Z,737.10
2023-02-11T03:17:17.982Z,442.00
2023-02-11T03:20:25.260Z,188.70
2023-02-11T03:23:50.600Z,140.68
2023-02-11T03:26:57.313Z,125.10
2023-02-11T03:33:36.431Z,133.57
2023-02-11T03:36:46.536Z,124.60
2023-02-11T03:40:02.073Z,123.88
2023-02-11T03:43:26.423Z,127.72
2023-02-11T03:46:42.798Z,127.45
2023-02-11T03:50:00.324Z,123.45
2023-02-11T03:53:05.374Z,121.75
2023-02-11T03:56:15.350Z,121.33
2023-02-11T03:59:19.780Z,117.15
2023-02-11T04:02:28.007Z,176.43
2023-02-11T04:05:42.514Z,158.13
2023-02-11T04:08:56.755Z,147.63
2023-02-11T04:12:11.114Z,152.95
2023-02-11T04:15:14.793Z,179.48
2023-02-11T04:18:18.706Z,145.07
2023-02-11T04:21:24.519Z,140.93
2023-02-11T04:24:28.897Z,143.45
2023-02-11T04:27:42.631Z,139.73
2023-02-11T04:30:57.208Z,135.98
2023-02-11T04:34:01.148Z,131.55
2023-02-11T04:37:15.753Z,126.20
2023-02-11T04:40:19.480Z,130.60
2023-02-11T04:43:23.387Z,128.07
2023-02-11T04:46:27.689Z,134.43
2023-02-11T04:49:37.675Z,210.40
2023-02-11T04:52:41.515Z,155.27
2023-02-11T04:55:45.699Z,156.43
2023-02-11T04:58:49.345Z,162.10
2023-02-11T05:01:53.806Z,144.48
2023-02-11T05:05:02.302Z,138.15
2023-02-11T05:08:07.003Z,124.47
2023-02-11T05:11:17.655Z,131.23
2023-02-11T05:14:22.105Z,120.25
2023-02-11T05:17:25.891Z,94.40
2023-02-11T05:20:31.520Z,86.88
2023-02-11T05:23:36.020Z,75.05
2023-02-11T05:26:39.846Z,80.20
2023-02-11T05:29:53.472Z,118.20
2023-02-11T05:32:57.901Z,97.72
2023-02-11T05:36:04.541Z,103.30
2023-02-11T05:39:08.437Z,93.73
2023-02-11T05:42:13.340Z,81.53
2023-02-11T05:45:17.412Z,80.63
2023-02-11T05:48:21.169Z,87.82
2023-02-11T05:51:27.708Z,72.13
2023-02-11T05:54:31.963Z,74.15
2023-02-11T05:57:46.077Z,72.57
2023-02-11T06:00:55.092Z,81.63
2023-02-11T06:03:59.361Z,68.22
2023-02-11T06:07:05.276Z,69.15
2023-02-11T06:10:10.784Z,81.03
2023-02-11T06:13:15.983Z,128.00
2023-02-11T06:16:32.030Z,112.15
2023-02-11T06:19:36.421Z,84.72
2023-02-11T06:22:40.985Z,92.35
2023-02-11T06:25:47.638Z,90.63
2023-02-11T06:28:57.120Z,101.47
2023-02-11T06:32:06.088Z,85.18
2023-02-11T06:35:12.092Z,76.95
2023-02-11T06:38:16.279Z,82.57
2023-02-11T06:41:21.149Z,87.13
2023-02-11T06:44:25.606Z,84.10
2023-02-11T06:47:29.816Z,84.75
2023-02-11T06:50:43.989Z,93.50
2023-02-11T06:53:48.350Z,87.43
2023-02-11T06:56:56.748Z,88.22
2023-02-11T07:00:00.741Z,96.82
2023-02-11T07:03:16.982Z,94.95
2023-02-11T07:06:25.350Z,87.20
2023-02-11T07:09:33.946Z,87.73
2023-02-11T07:12:47.691Z,80.10
2023-02-11T07:16:06.541Z,85.00
2023-02-11T07:19:10.638Z,84.97
2023-02-11T07:22:14.771Z,82.05
2023-02-11T07:25:19.116Z,88.28
2023-02-11T07:28:29.089Z,78.03
2023-02-11T07:31:40.779Z,80.03
2023-02-11T07:34:44.511Z,87.72
2023-02-11T07:37:49.025Z,80.88
2023-02-11T07:40:52.895Z,81.93
2023-02-11T07:43:57.431Z,82.85
2023-02-11T07:47:06.471Z,76.65
2023-02-11T07:50:11.089Z,73.07
2023-02-11T07:53:15.122Z,74.45
2023-02-11T07:56:24.119Z,74.35
2023-02-11T07:59:28.330Z,72.47
2023-02-11T08:02:32.630Z,63.95
2023-02-11T08:05:39.382Z,68.93
2023-02-11T08:08:53.196Z,62.97
2023-02-11T08:11:57.387Z,69.72
2023-02-11T08:15:06.542Z,66.95
2023-02-11T08:18:18.107Z,54.50
2023-02-11T08:21:22.385Z,68.80
2023-02-11T08:24:36.187Z,54.95
2023-02-11T08:27:41.465Z,68.85
2023-02-11T08:30:45.850Z,55.30
2023-02-11T08:33:50.083Z,56.08
2023-02-11T08:37:04.984Z,57.97
2023-02-11T08:40:20.161Z,57.17
2023-02-11T08:43:24.094Z,51.45
2023-02-11T08:46:33.016Z,55.15
2023-02-11T08:49:37.964Z,70.72
2023-02-11T08:52:46.604Z,48.00
2023-02-11T08:55:52.102Z,55.75
2023-02-11T08:58:57.150Z,60.60
2023-02-11T09:02:06.465Z,46.58
2023-02-11T09:05:10.444Z,46.13
2023-02-11T09:08:24.162Z,46.92
2023-02-11T09:11:36.033Z,47.63
2023-02-11T09:14:40.106Z,58.38
2023-02-11T09:17:44.230Z,53.60
2023-02-11T09:21:05.381Z,45.60
2023-02-11T09:24:14.613Z,62.72
2023-02-11T09:27:18.676Z,64.40
2023-02-11T09:30:23.348Z,73.05
2023-02-11T09:33:39.540Z,66.55
2023-02-11T09:36:55.113Z,59.85
2023-02-11T09:40:02.103Z,70.70
2023-02-11T09:43:17.284Z,63.15
2023-02-11T09:46:23.883Z,65.15
2023-02-11T09:49:43.210Z,56.47
2023-02-11T09:53:01.364Z,54.85
2023-02-11T09:56:25.740Z,60.40
2023-02-11T09:59:41.173Z,68.00
2023-02-11T10:03:22.250Z,56.25
2023-02-11T10:06:40.009Z,54.47
2023-02-11T10:10:16.332Z,64.87
2023-02-11T10:13:33.989Z,58.80
2023-02-11T10:20:38.232Z,51.40
2023-02-11T10:23:47.961Z,65.80
2023-02-11T10:27:09.282Z,75.28
2023-02-11T10:30:33.359Z,81.25
2023-02-11T10:33:54.882Z,87.53
2023-02-11T10:37:13.852Z,79.93
2023-02-11T10:40:24.637Z,74.47
2023-02-11T10:43:33.769Z,84.53
2023-02-11T10:46:40.848Z,95.80
2023-02-11T10:49:46.967Z,85.30
2023-02-11T10:53:24.821Z,89.93
2023-02-11T10:56:37.689Z,93.40
2023-02-11T10:59:43.852Z,99.25
2023-02-11T11:02:55.679Z,108.00
2023-02-11T11:06:02.875Z,90.68
2023-02-11T11:09:31.920Z,89.53
2023-02-11T11:12:49.324Z,91.60
2023-02-11T11:19:31.176Z,96.97
2023-02-11T11:22:36.656Z,102.68
2023-02-11T11:25:46.478Z,103.35
2023-02-11T11:28:50.926Z,97.57
2023-02-11T11:32:05.185Z,152.43
2023-02-11T11:35:44.161Z,116.43
2023-02-11T11:39:00.400Z,98.03
2023-02-11T11:42:40.492Z,102.30
2023-02-11T11:46:00.058Z,91.57
2023-02-11T11:49:31.245Z,92.20
2023-02-11T11:53:05.899Z,84.57
2023-02-11T11:59:30.704Z,69.22
2023-02-11T12:02:56.914Z,83.03
2023-02-11T12:06:14.160Z,81.57
2023-02-11T12:09:50.808Z,81.55
2023-02-11T12:13:23.259Z,88.63
2023-02-11T12:17:04.537Z,83.60
2023-02-11T12:20:30.774Z,104.32
2023-02-11T12:24:12.535Z,101.07
2023-02-11T12:27:37.095Z,137.65
2023-02-11T12:34:52.444Z,331.30
2023-02-11T12:38:08.810Z,204.20
2023-02-11T12:41:44.468Z,105.78
2023-02-11T12:49:05.850Z,135.00
2023-02-11T12:56:01.976Z,127.60
2023-02-11T12:59:14.455Z,110.10
2023-02-11T13:02:37.288Z,154.97
2023-02-11T13:05:42.572Z,178.38
2023-02-11T13:08:52.107Z,123.50
2023-02-11T13:12:23.525Z,109.78
2023-02-11T13:15:27.668Z,201.05
2023-02-11T13:18:38.288Z,102.45
2023-02-11T13:22:37.085Z,121.32
2023-02-11T13:30:47.197Z,84.75
2023-02-11T13:34:01.736Z,84.35
2023-02-11T13:37:06.280Z,80.45
2023-02-11T13:40:20.139Z,80.50
2023-02-11T13:43:29.232Z,75.65
2023-02-11T13:47:00.148Z,86.03
2023-02-11T13:50:08.702Z,82.78
2023-02-11T13:53:15.063Z,67.07
2023-02-11T13:56:37.113Z,68.97
2023-02-11T13:59:48.189Z,71.82
2023-02-11T14:03:30.678Z,65.13
2023-02-11T14:06:57.874Z,92.03
2023-02-11T14:10:01.595Z,81.07
2023-02-11T14:13:30.096Z,107.20
2023-02-11T14:20:44.462Z,90.50
2023-02-11T14:23:54.324Z,109.93
2023-02-11T14:31:13.452Z,104.80
2023-02-11T14:34:47.630Z,391.17
2023-02-11T14:38:13.534Z,137.18
2023-02-11T14:41:25.436Z,69.50
2023-02-11T14:44:33.643Z,128.67
2023-02-11T14:47:41.579Z,74.75
2023-02-11T14:50:52.699Z,257.52
2023-02-11T14:54:25.365Z,97.85
2023-02-11T14:57:34.160Z,89.50
2023-02-11T15:01:06.896Z,187.18
2023-02-11T15:04:27.112Z,82.60
2023-02-11T15:07:36.076Z,76.47
2023-02-11T15:10:50.980Z,70.13
2023-02-11T15:14:08.512Z,70.32
2023-02-11T15:17:23.730Z,74.45
2023-02-11T15:20:32.205Z,83.40
2023-02-11T15:24:00.329Z,70.15
2023-02-11T15:27:15.915Z,65.70
2023-02-11T15:30:24.999Z,63.33
2023-02-11T15:33:32.490Z,53.28
2023-02-11T15:36:36.804Z,57.38
2023-02-11T15:39:51.568Z,61.35
2023-02-11T15:43:04.022Z,51.45
2023-02-11T15:49:19.641Z,64.82
2023-02-11T15:52:35.477Z,65.57
2023-02-11T15:55:42.317Z,78.50
2023-02-11T15:58:50.004Z,242.48
2023-02-11T16:01:55.006Z,466.20
2023-02-11T16:05:31.540Z,462.30
2023-02-11T16:08:38.046Z,189.73
2023-02-11T16:11:48.370Z,171.82
2023-02-11T16:14:52.740Z,183.13
2023-02-11T16:17:57.194Z,105.43
2023-02-11T16:21:03.006Z,107.40
2023-02-11T16:24:08.446Z,93.03
2023-02-11T16:27:36.929Z,86.13
2023-02-11T16:30:55.816Z,88.00
2023-02-11T16:37:32.998Z,67.47
2023-02-11T16:40:37.731Z,53.92
2023-02-11T16:43:41.960Z,51.05
2023-02-11T16:46:46.563Z,50.88
2023-02-11T16:49:50.643Z,49.75
2023-02-11T16:53:00.071Z,47.70
2023-02-11T16:56:18.442Z,44.84
2023-02-11T16:59:22.733Z,45.65
2023-02-11T17:02:35.504Z,55.78
2023-02-11T17:05:54.447Z,45.92
2023-02-11T17:08:59.972Z,49.03
2023-02-11T17:12:03.583Z,49.35
2023-02-11T17:15:12.239Z,52.78
2023-02-11T17:18:16.528Z,51.78
2023-02-11T17:21:36.161Z,49.53
2023-02-11T17:24:46.183Z,47.42
2023-02-11T17:28:00.169Z,49.28
2023-02-11T17:31:08.854Z,49.53
2023-02-11T17:34:13.990Z,49.75
2023-02-11T17:37:27.829Z,57.63
2023-02-11T17:40:42.053Z,51.17
2023-02-11T17:43:46.191Z,54.45
2023-02-11T17:46:49.821Z,61.30
2023-02-11T17:49:53.888Z,55.78
2023-02-11T17:52:59.419Z,61.17
2023-02-11T17:56:08.052Z,55.55
2023-02-11T17:59:14.008Z,64.82
2023-02-11T18:02:18.278Z,72.55
2023-02-11T18:05:41.162Z,70.78
2023-02-11T18:09:13.632Z,68.20
2023-02-11T18:12:25.529Z,73.63
2023-02-11T18:15:30.535Z,69.30
2023-02-11T18:18:35.373Z,77.15
2023-02-11T18:21:39.953Z,80.63
2023-02-11T18:24:44.085Z,68.40
2023-02-11T18:27:52.962Z,69.20
2023-02-11T18:31:00.909Z,65.03
2023-02-11T18:34:14.617Z,67.07
2023-02-11T18:37:18.310Z,65.53
2023-02-11T18:40:22.635Z,65.80
2023-02-11T18:43:32.036Z,65.47
2023-02-11T18:46:36.301Z,72.55
2023-02-11T18:49:40.456Z,87.88
2023-02-11T18:52:44.053Z,94.90
2023-02-11T18:55:50.692Z,93.32
2023-02-11T18:59:06.881Z,95.47
2023-02-11T19:02:16.307Z,111.38
2023-02-11T19:05:20.382Z,161.23
2023-02-11T19:08:24.355Z,115.97
2023-02-11T19:11:52.648Z,119.32
2023-02-11T19:14:59.523Z,101.57
2023-02-11T19:18:08.443Z,142.65
2023-02-11T19:21:13.606Z,118.30
2023-02-11T19:24:23.960Z,91.50
2023-02-11T19:27:30.904Z,92.72
2023-02-11T19:30:36.982Z,83.88
2023-02-11T19:33:41.355Z,72.22
2023-02-11T19:36:51.182Z,75.85
2023-02-11T19:39:55.104Z,70.10
2023-02-11T19:42:59.345Z,71.40
2023-02-11T19:46:05.379Z,67.30
2023-02-11T19:49:10.473Z,67.03
2023-02-11T19:52:14.433Z,64.78
2023-02-11T19:55:19.481Z,66.57
2023-02-11T19:58:36.904Z,60.40
2023-02-11T20:01:53.597Z,72.03
2023-02-11T20:04:57.595Z,71.25
2023-02-11T20:08:01.885Z,73.60
2023-02-11T20:11:17.958Z,115.70
2023-02-11T20:14:21.858Z,162.27
2023-02-11T20:17:25.731Z,206.00
2023-02-11T20:20:39.893Z,235.88
2023-02-11T20:23:54.880Z,246.25
2023-02-11T20:26:59.247Z,231.93
2023-02-11T20:30:03.808Z,212.45
2023-02-11T20:33:07.946Z,179.27
2023-02-11T20:36:24.400Z,199.35
2023-02-11T20:42:32.843Z,154.43
2023-02-11T20:45:36.860Z,169.20
2023-02-11T20:48:40.778Z,135.18
2023-02-11T20:51:48.090Z,150.15
2023-02-11T20:54:52.069Z,128.90
2023-02-11T20:57:58.045Z,115.20
2023-02-11T21:01:17.204Z,95.00
2023-02-11T21:04:25.454Z,90.30
2023-02-11T21:07:35.741Z,134.98
2023-02-11T21:10:41.311Z,150.80
2023-02-11T21:13:55.048Z,141.68
2023-02-11T21:17:04.227Z,147.27
2023-02-11T21:20:12.967Z,194.23
2023-02-11T21:23:17.006Z,222.93
2023-02-11T21:26:20.829Z,209.68
2023-02-11T21:29:45.732Z,174.85
2023-02-11T21:32:59.345Z,245.02
2023-02-11T21:36:05.442Z,162.30
2023-02-11T21:39:20.673Z,158.10
2023-02-11T21:42:26.439Z,219.23
2023-02-11T21:45:32.364Z,215.48
2023-02-11T21:48:46.291Z,294.70
2023-02-11T21:51:50.633Z,252.65
2023-02-11T21:54:54.238Z,300.45
2023-02-11T21:58:00.360Z,277.33
2023-02-11T22:01:17.846Z,262.13
2023-02-11T22:04:27.458Z,227.63
2023-02-11T22:07:32.450Z,229.88
2023-02-11T22:10:41.408Z,176.00
2023-02-11T22:13:47.715Z,146.43
2023-02-11T22:16:51.588Z,127.47
2023-02-11T22:19:57.739Z,124.18
2023-02-11T22:23:06.617Z,121.50
2023-02-11T22:26:14.029Z,123.00
2023-02-11T22:29:19.633Z,133.27
2023-02-11T22:32:23.929Z,132.05
2023-02-11T22:35:34.882Z,126.75
2023-02-11T22:38:44.561Z,125.90
2023-02-11T22:41:57.949Z,115.38
2023-02-11T22:45:01.826Z,116.63
2023-02-11T22:48:17.259Z,109.60
2023-02-11T22:51:26.875Z,118.35
2023-02-11T22:54:31.918Z,110.80
2023-02-11T22:57:35.976Z,105.65
2023-02-11T23:00:42.022Z,101.00
2023-02-11T23:03:55.222Z,114.50
2023-02-11T23:06:59.569Z,111.60
2023-02-11T23:10:03.728Z,107.22
2023-02-11T23:13:08.627Z,101.85
2023-02-11T23:16:16.045Z,113.95
2023-02-11T23:19:20.466Z,134.25
2023-02-11T23:25:32.083Z,144.88
2023-02-11T23:28:35.778Z,162.10
2023-02-11T23:31:43.845Z,169.75
2023-02-11T23:34:58.950Z,161.40
2023-02-11T23:38:02.915Z,166.85
2023-02-11T23:41:17.744Z,122.10
2023-02-11T23:44:27.569Z,115.22
2023-02-11T23:47:31.921Z,115.55
2023-02-11T23:50:40.044Z,128.57
2023-02-11T23:53:46.373Z,111.32
2023-02-11T23:56:50.049Z,103.30
2023-02-11T23:59:54.211Z,108.92
